Stafford, NY

8:04 PM EDT on September 03, 2015 (GMT -0400)
South of village | | Change Station
CLOSE
Current Station
Personal Weather Station
Location: Attica, NY
Elevation: 1007 ft
Nearby Weather Stations

Elev 1007 ft 42.84 °N, 78.29 °W | Updated 2 hours ago

Partly Cloudy
Partly Cloudy
90.9 °F
Feels Like 99 °F
N
2.7
Wind Variable Wind from North
Gusts 2.7 mph

Today
High -- | Low -- °F
--% Chance of Precip.
Yesterday
High -- | Low -- °F
Precip. -- in
6:38 AM 7:43 PM
Waning Gibbous, 65% visible
Pressure 29.96 in
Visibility 9.0 miles
Clouds Few 10000 ft
Mostly Cloudy 25000 ft
Heat Index 99 °F
Dew Point 72 °F
Humidity 55%
Rainfall 0.00 in
Snow Depth Not available.
UV 0 out of 12
Pollen 9.80 out of 12
Air Quality Not available.
Flu Activity Not available.
METAR KROC 032354Z 05005KT 9SM FEW100 BKN250 24/20 A2996 RMK AO2 SLP144 T02440200 10294 20244 51018
Pressure 29.96 in
Visibility 9.0 miles
Clouds Few 10000 ft
Mostly Cloudy 25000 ft
Heat Index 99 °F
Dew Point 72 °F
Humidity 55%
Rainfall 0.00 in
Snow Depth Not available.
UV 0 out of 12
Pollen 9.80 out of 12
Air Quality Not available.
Flu Activity Not available.
METAR KROC 032354Z 05005KT 9SM FEW100 BKN250 24/20 A2996 RMK AO2 SLP144 T02440200 10294 20244 51018

10-Day Weather Forecast

×

Almanac

Astronomy

Sep. 03, 2015 Rise Set
Actual Time
Civil Twilight
Nautical Twilight
Astronomical Twilight
Moon
Length of Visible Light
Length of Day
Tomorrow will be .
, % of the Moon is Illuminated

Today's Extremes

State Highs State Lows

Community

WunderPhotos

Upload Photos

1,852,069 photos uploaded!

WunderBlogs® & News

Nearby

Air Quality

  Air Quality AQ Index Pollutant
Not available.

Snow Depth

Station Depth Elevation

Earthquake Activity

City Distance Mag. Time & Date
Minimum magnitude displayed is 2.5.

Coastal Water Temperatures

Place Temperature

Stations

Nearby Weather Stations

Station Location Temp. Windchill Dew Point Humidity Wind Precip. Elev Updated Type